AirNav   Everest Fuels
 
 1526 users online  

KEIW County Memorial Airport
New Madrid, Missouri, USA

GOING TO NEW MADRID?


FAA INFORMATION EFFECTIVE 10 SEPTEMBER 2020

Location

FAA Identifier: EIW
Lat/Long: 36-32-07.1000N 089-35-59.0000W
36-32.118333N 089-35.983333W
36.5353056,-89.5997222
(estimated)
Elevation: 295.8 ft. / 90.2 m (surveyed)
Variation: 00E (2000)
From city: 4 miles SW of NEW MADRID, MO
Time zone: UTC -5 (UTC -6 during Standard Time)
Zip code: 63866

Airport Operations

Airport use: Open to the public
Control tower: no
ARTCC: MEMPHIS CENTER
FSS: SAINT LOUIS FLIGHT SERVICE STATION
NOTAMs facility: STL (NOTAM-D service available)
Attendance: OCT-MAR MON-FRI 0800-1630, APR-SEP MON-FRI 0800-1730, ALL SAT-SUN 0900-1630
Wind indicator: lighted
Segmented circle: yes
Lights: MIRL RWY 18/36 PRESET ON MED INTST; TO INCR INTST & ACTVT MIRL RWY 18/36 - CTAF.
Beacon: white-green (lighted land airport)
Operates sunset to sunrise.

Airport Communications

CTAF/UNICOM: 122.8
WX AWOS-3PT at MAW (19 nm W): 119.825 (573-276-9970)
  • UNICOM UNMON.
  • APCH/DEP SVC PRVDD BY MEMPHIS ARTCC ON FREQS 133.65/292.15 (PADUCAH RCAG).

Nearby radio navigation aids

VOR radial/distance  VOR name  Freq  Var
MAWr092/15.1MALDEN VORTAC111.2003E
DYRr333/33.9DYERSBURG VORTAC116.8003E

 
NDB name  Hdg/Dist  Freq  Var  ID
CAIRO210/36.439700ECIR -.-. .. .-.

Airport Services

Fuel available: 100LL
FOR SVC AFT HRS, CALL ARPT MGR AT (573) 643-2403 OR (573) 934-3734.
Parking: hangars and tiedowns
Powerplant service: NONE

Runway Information

Runway 18/36

Dimensions: 3200 x 60 ft. / 975 x 18 m
Surface: asphalt, in good condition
Runway edge lights: medium intensity
RUNWAY 18  RUNWAY 36
Latitude: 36-32.382167N36-31.854833N
Longitude: 089-35.984500W089-35.982333W
Elevation: 294.8 ft.295.8 ft.
Traffic pattern: leftleft
Runway heading: 180360
Markings: nonprecision, in good conditionnonprecision, in good condition
Touchdown point: yes, no lightsyes, no lights
Obstructions: 15 ft. road, 300 ft. from runway, 250 ft. left and right of centerline, 6:1 slope to clearnone

Airport Ownership and Management from official FAA records

Ownership: Publicly-owned
Owner: COUNTY OF NEW MADRID
450 MAIN STREET, PO BOX 68
NEW MADRID, MO 63869
Phone 573-748-2524
Manager: BUSTER HAMPTON
P.O. BOX 668
NEW MADRID, MO 63869
Phone (573) 643-2403
COUNTY CLERK.

Airport Operational Statistics

Aircraft based on the field: 9
Single engine airplanes: 7
Multi engine airplanes: 1
Helicopters: 1
    
Aircraft operations: avg 47/day *
72% local general aviation
22% transient general aviation
5% air taxi
<1% military
* for 12-month period ending 31 December 2018

Additional Remarks

CROP DUSTING ACFT ON & INVOF ARPT.
WATERFOWL INVOF ARPT.
FOR CD CTC MEMPHIS ARTCC AT 901-368-8453.

Instrument Procedures

NOTE: All procedures below are presented as PDF files. If you need a reader for these files, you should download the free Adobe Reader.

NOT FOR NAVIGATION. Please procure official charts for flight.
FAA instrument procedures published for use from 10 September 2020 at 0901Z to 08 October 2020 at 0900z.

 
IAPs - Instrument Approach Procedures
RNAV (GPS) RWY 18   download (210KB)
RNAV (GPS) RWY 36   download (217KB)
VOR/DME-A   download (157KB)
NOTE: Special Take-Off Minimums/Departure Procedures apply   download (321KB)

Other nearby airports with instrument procedures:

M85 - Gideon Memorial Airport (16 nm W)
KMAW - Malden Regional Airport (19 nm W)
KCHQ - Mississippi County Airport (22 nm NE)
KDXE - Dexter Municipal Airport (22 nm NW)
KSIK - Sikeston Memorial Municipal Airport (22 nm N)
 
Loc | Ops | Rwys | IFR | FBO | Links
Com | Nav | Svcs | Stats | Notes
Area around KEIW (County Memorial Airport)
 
Road maps at: MapQuest Bing Google
 
Aerial photo
WARNING: Photo may not be current or correct
Aerial photo of KEIW (County Memorial Airport)
Do you have a better or more recent aerial photo of County Memorial Airport that you would like to share? If so, please send us your photo.

 
Sectional chart

 
Airport distance calculator
Flying to County Memorial Airport? Find the distance to fly.

From to KEIW

Sunrise and sunset
Times for 22-Sep-2020
 Local
(UTC-5)
 Zulu
(UTC)
Morning civil twilight06:2211:22
Sunrise06:4811:48
Sunset18:5323:53
Evening civil twilight19:1900:19

Current date and time
Zulu (UTC)  22-Sep-2020 21:32:31
Local (UTC-5)  22-Sep-2020 16:32:31
 
METAR
KMAW 
19nm W 
222115Z AUTO 00000KT 10SM -DZ CLR 19/14 A3017 RMK AO2
KSIK 
22nm N 
222115Z AUTO 00000KT 10SM -RA BKN003 18/15 A3017 RMK AO2
KTKX 
28nm SW 
222055Z AUTO 09003KT 10SM CLR 17/16 A3016 RMK AO2 P0002 TSNO
KUCY 
31nm E 
222055Z AUTO 00000KT 10SM CLR 19/13 A3016 RMK A01
KDYR 
34nm S 
222056Z AUTO 06004KT 10SM CLR 18/15 A3017 RMK AO2 RAE28 SLP223 6//// T01780150 56021 PNO $
KCIR 
37nm NE 
222055Z 7SM SCT050 BKN090 OVC110 17/14 A3017 RMK AO2 P0001 60001 T01670138
KPOF 
37nm W 
222053Z AUTO 00000KT 10SM -RA BKN110 18/14 A3016 RMK AO2 SLP213 P0001 60001 T01780139 56020
KHKA 
38nm S 
222053Z AUTO 07004KT 8SM -RA FEW060 BKN110 18/14 A3015 RMK AO2 SLP210 P0000 60002 T01780144 56024 $
TAF
KCGI 
42nm N 
221720Z 2218/2318 16004KT P6SM FEW050 BKN250 FM230800 00000KT 4SM BR OVC100 FM231400 VRB03KT P6SM BKN060
NOTAMs
Click for the latest NOTAMs
NOTAMs are issued by the DoD/FAA and will open in a separate window not controlled by AirNav.

 

 
 

FBO, Fuel Providers, and Aircraft Ground Support

  
 Business Name 
 
 Contact 
 
 Services / Description 
 
Fuel Prices
 
Comments
  
Hampton's Flying Service 573-934-3734
no information available

If you are affiliated with Hampton's Flying Service and would like to show here your services, contact info, web link, logo, and more, click here
100LL
SS $3.90 
 Updated 17-Sep-2020
 
   write
SS=Self service
Update Fuel Prices
 

Would you like to see your business listed on this page?

 If your business provides an interesting product or service to pilots, flight crews, aircraft, or users of the County Memorial Airport, you should consider listing it here.  To start the listing process, click on the button below
 
Add a business
 

Other Pages about County Memorial Airport

Update a link
 
Copyright © AirNav, LLC. All rights reserved. Privacy Policy  Contact